Time;durP1;ratioP1;P1;durP2;ratioP2;P2;SDS_P1;SDS_P2;PMS_P1;PMS_P2;Temp;Humidity;BMP_temperature;BMP_pressure;BME280_temperature;BME280_humidity;BME280_pressure;Samples;Min_cycle;Max_cycle;Signal;HPM_P1;HPM_P2
2022/05/13 00:00:22;;;;;;;;;;;;;;;12.66;53.19;100571.48;110350;1257;23772;-78
2022/05/13 00:03:03;;;;;;;;;;;;;;;12.62;53.56;100576.19;110303;1259;22008;-77
2022/05/13 00:05:32;;;;;;;;;;;;;;;12.58;53.71;100578.15;110225;1259;24393;-78
2022/05/13 00:08:02;;;;;;;;;;;;;;;12.58;54.26;100580.15;109821;1259;21950;-78
2022/05/13 00:10:31;;;;;;;;;;;;;;;12.61;54.57;100580.85;109844;1257;21946;-79
2022/05/13 00:13:00;;;;;;;;;;;;;;;12.65;54.58;100580.77;110275;1257;23043;-79
2022/05/13 00:15:29;;;;;;;;;;;;;;;12.68;54.76;100577.52;110238;1257;21949;-78
2022/05/13 00:17:59;;;;;;;;;;;;;;;12.74;54.74;100573.21;110361;1257;22054;-78
2022/05/13 00:20:28;;;;;;;;;;;;;;;12.76;54.77;100572.44;110383;1257;22036;-78
2022/05/13 00:22:57;;;;;;;;;;;;;;;12.76;54.57;100569.90;110365;1257;21963;-78
2022/05/13 00:25:29;;;;;;;;;;;;;;;12.77;54.71;100567.70;110218;1258;21962;-78
2022/05/13 00:28:00;;;;;;;;;;;;;;;12.79;54.70;100566.41;110711;1252;21943;-78
2022/05/13 00:30:32;;;;;;;;;;;;;;;12.79;54.59;100567.63;110701;1251;22260;-78
2022/05/13 00:33:02;;;;;;;;;;;;;;;12.77;54.41;100569.67;110690;1251;23756;-78
2022/05/13 00:35:31;;;;;;;;;;;;;;;12.72;54.53;100569.88;110737;1251;21954;-78
2022/05/13 00:38:00;;;;;;;;;;;;;;;12.68;54.46;100571.77;110154;1257;22458;-79
2022/05/13 00:40:29;;;;;;;;;;;;;;;12.64;54.50;100569.23;110458;1256;22023;-78
2022/05/13 00:43:00;;;;;;;;;;;;;;;12.57;54.18;100566.63;110003;1262;22147;-78
2022/05/13 00:45:31;;;;;;;;;;;;;;;12.49;54.26;100567.79;109717;1260;22643;-77
2022/05/13 00:48:01;;;;;;;;;;;;;;;12.42;54.41;100565.34;109825;1262;23581;-77
2022/05/13 00:50:32;;;;;;;;;;;;;;;12.38;54.53;100565.63;109044;1267;23153;-77
2022/05/13 00:53:03;;;;;;;;;;;;;;;12.33;54.68;100567.23;108962;1268;22103;-78
2022/05/13 00:55:38;;;;;;;;;;;;;;;12.29;54.91;100561.41;109246;1264;22068;-78
2022/05/13 00:58:08;;;;;;;;;;;;;;;12.24;54.94;100556.27;108920;1270;21961;-76
2022/05/13 01:00:37;;;;;;;;;;;;;;;12.20;55.06;100556.15;108817;1267;21968;-77
2022/05/13 01:03:07;;;;;;;;;;;;;;;12.17;55.27;100559.36;108920;1270;22189;-77
2022/05/13 01:05:36;;;;;;;;;;;;;;;12.14;55.44;100558.77;108950;1269;22044;-78
2022/05/13 01:08:07;;;;;;;;;;;;;;;12.12;55.64;100559.15;108629;1267;23030;-78
2022/05/13 01:10:38;;;;;;;;;;;;;;;12.11;55.84;100560.52;109281;1267;23716;-77
2022/05/13 01:13:11;;;;;;;;;;;;;;;12.11;56.07;100563.25;108739;1271;22033;-78
2022/05/13 01:15:42;;;;;;;;;;;;;;;12.12;56.22;100563.80;108821;1270;22038;-78
2022/05/13 01:18:12;;;;;;;;;;;;;;;12.12;56.15;100562.34;109016;1263;23019;-78
2022/05/13 01:20:47;;;;;;;;;;;;;;;12.11;56.11;100563.20;109104;1267;23674;-78
2022/05/13 01:23:30;;;;;;;;;;;;;;;12.09;56.17;100563.27;108949;1269;22034;-80
2022/05/13 01:26:03;;;;;;;;;;;;;;;12.09;56.37;100560.27;109171;1265;23573;-79
2022/05/13 01:28:36;;;;;;;;;;;;;;;12.08;56.42;100559.60;109116;1270;22060;-77
2022/05/13 01:31:09;;;;;;;;;;;;;;;12.08;56.35;100555.40;109064;1265;22012;-79
2022/05/13 01:33:39;;;;;;;;;;;;;;;12.09;56.39;100551.93;109599;1263;21963;-78
2022/05/13 01:36:12;;;;;;;;;;;;;;;12.09;56.29;100548.05;109013;1270;21976;-79
2022/05/13 01:38:42;;;;;;;;;;;;;;;12.07;56.07;100546.67;109270;1263;21970;-78
2022/05/13 01:41:13;;;;;;;;;;;;;;;12.04;56.01;100546.86;109331;1264;24293;-78
2022/05/13 01:43:44;;;;;;;;;;;;;;;12.00;56.19;100547.45;109733;1264;21958;-78
2022/05/13 01:46:14;;;;;;;;;;;;;;;11.95;55.95;100541.53;109691;1258;22736;-77
2022/05/13 01:48:43;;;;;;;;;;;;;;;11.87;56.00;100537.25;110368;1257;23691;-77
2022/05/13 01:51:12;;;;;;;;;;;;;;;11.80;56.30;100536.27;109467;1263;22285;-78
2022/05/13 01:53:41;;;;;;;;;;;;;;;11.76;56.55;100534.58;109000;1263;23619;-77
2022/05/13 01:56:11;;;;;;;;;;;;;;;11.73;56.92;100537.17;109527;1263;21970;-78
2022/05/13 01:58:40;;;;;;;;;;;;;;;11.73;57.21;100539.17;108896;1268;23772;-79
2022/05/13 02:01:09;;;;;;;;;;;;;;;11.76;57.47;100537.57;108720;1273;21990;-79
2022/05/13 02:03:44;;;;;;;;;;;;;;;11.80;57.60;100537.95;108581;1273;22300;-78
2022/05/13 02:06:20;;;;;;;;;;;;;;;11.81;57.54;100540.67;108725;1273;22051;-78
2022/05/13 02:08:51;;;;;;;;;;;;;;;11.81;57.60;100537.45;108161;1274;24478;-79
2022/05/13 02:11:21;;;;;;;;;;;;;;;11.81;57.65;100535.80;108583;1270;22086;-77
2022/05/13 02:13:52;;;;;;;;;;;;;;;11.82;57.64;100536.98;108674;1273;24428;-77
2022/05/13 02:16:21;;;;;;;;;;;;;;;11.81;57.64;100537.77;108617;1270;23722;-78
2022/05/13 02:18:51;;;;;;;;;;;;;;;11.78;57.49;100538.98;109158;1267;23052;-77
2022/05/13 02:21:20;;;;;;;;;;;;;;;11.73;57.32;100535.79;108975;1268;22262;-77
2022/05/13 02:23:49;;;;;;;;;;;;;;;11.68;57.47;100536.66;109120;1267;23787;-78
2022/05/13 02:26:18;;;;;;;;;;;;;;;11.66;57.76;100533.04;109391;1260;21984;-79
2022/05/13 02:28:47;;;;;;;;;;;;;;;11.64;57.70;100532.09;109788;1263;22002;-78
2022/05/13 02:31:16;;;;;;;;;;;;;;;11.63;57.82;100531.33;109096;1263;23072;-77
2022/05/13 02:33:47;;;;;;;;;;;;;;;11.58;57.74;100534.71;109356;1263;23088;-78
2022/05/13 02:36:16;;;;;;;;;;;;;;;11.51;57.90;100528.67;109485;1263;23088;-78
2022/05/13 02:38:45;;;;;;;;;;;;;;;11.47;57.97;100529.15;109750;1263;23725;-77
2022/05/13 02:41:14;;;;;;;;;;;;;;;11.47;58.38;100528.70;109657;1263;22053;-77
2022/05/13 02:43:53;;;;;;;;;;;;;;;11.48;58.46;100526.80;109657;1263;24334;-78
2022/05/13 02:46:26;;;;;;;;;;;;;;;11.47;58.37;100522.08;109740;1257;23669;-78
2022/05/13 02:48:56;;;;;;;;;;;;;;;11.46;58.27;100517.85;110287;1251;22982;-78
2022/05/13 02:51:26;;;;;;;;;;;;;;;11.41;58.19;100514.69;110608;1252;22732;-77
2022/05/13 02:53:55;;;;;;;;;;;;;;;11.35;58.10;100514.98;110749;1251;21949;-78
2022/05/13 02:56:25;;;;;;;;;;;;;;;11.29;58.30;100513.75;110527;1251;23496;-78
2022/05/13 02:58:54;;;;;;;;;;;;;;;11.23;58.35;100511.25;110659;1251;23707;-79
2022/05/13 03:01:23;;;;;;;;;;;;;;;11.16;58.35;100508.66;110730;1254;22007;-78
2022/05/13 03:03:52;;;;;;;;;;;;;;;11.07;58.50;100507.77;110691;1252;21951;-77
2022/05/13 03:06:21;;;;;;;;;;;;;;;11.01;58.73;100512.51;110830;1251;23127;-78
2022/05/13 03:08:51;;;;;;;;;;;;;;;10.98;59.01;100518.52;110717;1251;23631;-77
2022/05/13 03:11:20;;;;;;;;;;;;;;;10.99;59.46;100522.15;110921;1251;23562;-77
2022/05/13 03:13:51;;;;;;;;;;;;;;;11.01;59.61;100520.83;110580;1252;22019;-76
2022/05/13 03:16:23;;;;;;;;;;;;;;;11.01;59.58;100515.05;110693;1253;21970;-77
2022/05/13 03:18:55;;;;;;;;;;;;;;;10.99;59.57;100511.02;110723;1252;21947;-77
2022/05/13 03:21:25;;;;;;;;;;;;;;;10.95;59.53;100509.33;110618;1251;23657;-77
2022/05/13 03:23:54;;;;;;;;;;;;;;;10.91;59.74;100508.84;110570;1251;23506;-78
2022/05/13 03:26:23;;;;;;;;;;;;;;;10.90;59.72;100504.95;110576;1251;21936;-79
2022/05/13 03:28:52;;;;;;;;;;;;;;;10.89;59.96;100505.60;110605;1251;21949;-78
2022/05/13 03:31:21;;;;;;;;;;;;;;;10.89;60.10;100504.84;110756;1251;23596;-77
2022/05/13 03:33:51;;;;;;;;;;;;;;;10.92;60.26;100502.66;110734;1251;23033;-77
2022/05/13 03:36:20;;;;;;;;;;;;;;;10.92;60.10;100503.45;110573;1251;21949;-78
2022/05/13 03:38:49;;;;;;;;;;;;;;;10.91;60.05;100506.89;110696;1251;23658;-77
2022/05/13 03:41:18;;;;;;;;;;;;;;;10.94;60.49;100502.76;110537;1251;22727;-78
2022/05/13 03:43:47;;;;;;;;;;;;;;;10.97;60.26;100502.40;110554;1251;23185;-78
2022/05/13 03:46:16;;;;;;;;;;;;;;;10.97;60.04;100504.20;110139;1257;23059;-78
2022/05/13 03:48:46;;;;;;;;;;;;;;;10.97;60.17;100506.52;109791;1260;21964;-78
2022/05/13 03:51:15;;;;;;;;;;;;;;;10.99;60.51;100501.42;109397;1263;21987;-79
2022/05/13 03:53:44;;;;;;;;;;;;;;;11.06;60.88;100504.73;109633;1261;23622;-77
2022/05/13 03:56:13;;;;;;;;;;;;;;;11.15;61.01;100504.63;109144;1270;21982;-78
2022/05/13 03:58:43;;;;;;;;;;;;;;;11.24;60.97;100508.96;109191;1267;23691;-77
2022/05/13 04:01:12;;;;;;;;;;;;;;;11.32;60.92;100508.27;109167;1268;22974;-77
2022/05/13 04:03:41;;;;;;;;;;;;;;;11.40;60.87;100506.45;109196;1261;21977;-77
2022/05/13 04:09:06;;;;;;;;;;;;;;;11.51;60.57;100508.41;109373;1263;21952;-78
2022/05/13 04:17:39;;;;;;;;;;;;;;;11.74;60.11;100508.20;110246;1257;21946;-77
2022/05/13 04:20:11;;;;;;;;;;;;;;;11.81;59.88;100511.12;110062;1257;22730;-77
2022/05/13 04:22:42;;;;;;;;;;;;;;;11.88;59.59;100512.14;110166;1257;23743;-78
2022/05/13 04:25:12;;;;;;;;;;;;;;;11.95;59.68;100513.96;110206;1257;23062;-77
2022/05/13 04:27:41;;;;;;;;;;;;;;;12.04;59.63;100513.92;110615;1251;22972;-77
2022/05/13 04:30:10;;;;;;;;;;;;;;;12.15;59.48;100513.73;110328;1257;24321;-78
2022/05/13 04:32:40;;;;;;;;;;;;;;;12.25;59.38;100511.98;110169;1260;21952;-76
2022/05/13 04:35:09;;;;;;;;;;;;;;;12.37;59.20;100511.91;110307;1257;23561;-78
2022/05/13 04:37:42;;;;;;;;;;;;;;;12.49;59.11;100516.17;110185;1256;23590;-77
2022/05/13 04:40:12;;;;;;;;;;;;;;;12.61;58.71;100515.27;110345;1257;22253;-79
2022/05/13 04:43:00;;;;;;;;;;;;;;;12.74;58.58;100517.18;109287;1263;23088;-79
2022/05/13 04:46:20;;;;;;;;;;;;;;;;;;;;;
2022/05/13 04:50:14;;;;;;;;;;;;;;;;;;;;;
2022/05/13 04:54:22;;;;;;;;;;;;;;;13.31;57.75;100510.13;108932;1270;24208;-80
2022/05/13 04:57:52;;;;;;;;;;;;;;;13.62;57.47;100508.74;108556;1276;22015;-80
2022/05/13 05:00:43;;;;;;;;;;;;;;;13.83;56.84;100512.89;108576;1270;24785;-79
2022/05/13 05:03:45;;;;;;;;;;;;;;;14.03;56.47;100511.55;108849;1273;22137;-80
2022/05/13 05:06:34;;;;;;;;;;;;;;;14.29;56.41;100512.31;108737;1270;21997;-80
2022/05/13 05:09:29;;;;;;;;;;;;;;;14.60;56.00;100510.16;109097;1270;23607;-80
2022/05/13 05:12:23;;;;;;;;;;;;;;;14.92;55.46;100509.02;109533;1265;22576;-81
2022/05/13 05:14:55;;;;;;;;;;;;;;;15.20;54.86;100515.54;109558;1257;22393;-80
2022/05/13 05:17:42;;;;;;;;;;;;;;;15.50;54.23;100517.41;110304;1259;21946;-79
2022/05/13 05:20:15;;;;;;;;;;;;;;;15.79;53.74;100517.67;110397;1258;22278;-79
2022/05/13 05:23:02;;;;;;;;;;;;;;;16.10;53.04;100521.25;110352;1257;24308;-80
2022/05/13 05:25:42;;;;;;;;;;;;;;;16.42;52.48;100531.23;110303;1257;23599;-81
2022/05/13 05:28:17;;;;;;;;;;;;;;;16.74;51.78;100528.27;110257;1257;21961;-80
2022/05/13 05:30:51;;;;;;;;;;;;;;;17.07;51.23;100523.52;110385;1257;23576;-81
2022/05/13 05:33:24;;;;;;;;;;;;;;;17.36;50.04;100519.46;110014;1260;23548;-81
2022/05/13 05:36:00;;;;;;;;;;;;;;;17.62;49.38;100516.61;110352;1257;21947;-83
2022/05/13 05:38:54;;;;;;;;;;;;;;;;;;;;;
2022/05/13 05:41:48;;;;;;;;;;;;;;;18.31;48.02;100516.93;109863;1257;22014;-82
2022/05/13 05:44:59;;;;;;;;;;;;;;;18.68;47.43;100517.27;110230;1257;22751;-82
2022/05/13 05:48:26;;;;;;;;;;;;;;;19.29;46.21;100516.95;109591;1264;21961;-82
2022/05/13 05:51:38;;;;;;;;;;;;;;;19.85;44.66;100519.05;109237;1267;21966;-82
2022/05/13 05:58:21;;;;;;;;;;;;;;;20.88;42.28;100520.88;109397;1267;23641;-83
2022/05/13 06:01:27;;;;;;;;;;;;;;;;;;;;;
2022/05/13 06:05:15;;;;;;;;;;;;;;;21.78;40.40;100516.27;108952;1271;23008;-82
2022/05/13 06:08:23;;;;;;;;;;;;;;;22.14;38.41;100514.30;108787;1271;22057;-81
2022/05/13 06:11:02;;;;;;;;;;;;;;;22.38;37.38;100511.47;108653;1276;22212;-78
2022/05/13 06:14:19;;;;;;;;;;;;;;;22.64;37.03;100512.79;108504;1273;23024;-77
2022/05/13 06:18:21;;;;;;;;;;;;;;;23.00;35.96;100510.09;108793;1271;21985;-77
2022/05/13 06:25:44;;;;;;;;;;;;;;;23.70;35.18;100507.01;109358;1266;24037;-82
2022/05/13 06:28:37;;;;;;;;;;;;;;;24.14;34.77;100505.77;109264;1270;22087;-76
2022/05/13 06:32:01;;;;;;;;;;;;;;;24.59;33.67;100506.69;109119;1267;23872;-79
2022/05/13 06:35:48;;;;;;;;;;;;;;;24.92;33.16;100506.07;108894;1267;23087;-80
2022/05/13 06:39:16;;;;;;;;;;;;;;;25.28;33.22;100506.71;109049;1267;21983;-78
2022/05/13 06:46:49;;;;;;;;;;;;;;;;;;;;;
2022/05/13 06:49:29;;;;;;;;;;;;;;;26.37;31.52;100496.86;107918;1285;21986;-76
2022/05/13 06:52:03;;;;;;;;;;;;;;;26.71;31.36;100499.23;108064;1282;21978;-76
2022/05/13 06:54:38;;;;;;;;;;;;;;;26.97;30.58;100499.20;108048;1282;22310;-75
2022/05/13 06:57:25;;;;;;;;;;;;;;;27.12;29.65;100495.88;108056;1277;22385;-75
2022/05/13 07:00:14;;;;;;;;;;;;;;;27.13;28.96;100494.64;108408;1279;21989;-76
2022/05/13 07:03:11;;;;;;;;;;;;;;;27.26;28.97;100492.18;108269;1273;23067;-77
2022/05/13 07:06:15;;;;;;;;;;;;;;;27.44;28.42;100490.49;108978;1270;22118;-76
2022/05/13 07:08:46;;;;;;;;;;;;;;;27.58;27.87;100490.29;109219;1267;23140;-75
2022/05/13 07:11:19;;;;;;;;;;;;;;;27.69;27.60;100493.59;109202;1266;23567;-76
2022/05/13 07:13:56;;;;;;;;;;;;;;;27.76;27.56;100494.14;108690;1276;21975;-73
2022/05/13 07:16:36;;;;;;;;;;;;;;;27.85;26.91;100486.94;108780;1273;24351;-75
2022/05/13 07:19:18;;;;;;;;;;;;;;;27.89;26.70;100477.95;108833;1273;21982;-76
2022/05/13 07:22:03;;;;;;;;;;;;;;;27.98;26.48;100477.69;108804;1267;21969;-75
2022/05/13 07:24:33;;;;;;;;;;;;;;;27.94;26.07;100475.33;108941;1267;22079;-76
2022/05/13 07:27:03;;;;;;;;;;;;;;;28.02;26.03;100476.63;110034;1259;21968;-77
2022/05/13 07:29:39;;;;;;;;;;;;;;;28.07;25.78;100474.27;109632;1264;21955;-75
2022/05/13 07:32:15;;;;;;;;;;;;;;;28.17;25.90;100472.35;109016;1267;21966;-77
2022/05/13 07:35:01;;;;;;;;;;;;;;;28.31;25.80;100473.77;108887;1270;21975;-75
2022/05/13 07:37:36;;;;;;;;;;;;;;;28.32;25.05;100473.39;108753;1273;23715;-78
2022/05/13 07:43:03;;;;;;;;;;;;;;;28.54;24.83;100464.71;108563;1273;21996;-76
2022/05/13 07:45:34;;;;;;;;;;;;;;;28.57;24.60;100464.46;108713;1273;22062;-77
2022/05/13 07:48:12;;;;;;;;;;;;;;;28.66;24.52;100464.08;108808;1270;22836;-77
2022/05/13 07:50:48;;;;;;;;;;;;;;;28.61;24.29;100463.89;108954;1270;23600;-76
2022/05/13 07:53:21;;;;;;;;;;;;;;;28.52;24.20;100459.30;109006;1267;21973;-78
2022/05/13 07:55:57;;;;;;;;;;;;;;;28.56;24.51;100460.13;109308;1263;23042;-76
2022/05/13 07:58:29;;;;;;;;;;;;;;;28.85;24.62;100462.70;110225;1253;22146;-76
2022/05/13 08:01:05;;;;;;;;;;;;;;;29.08;24.17;100462.16;110563;1254;22412;-75
2022/05/13 08:03:34;;;;;;;;;;;;;;;29.07;23.72;100465.20;110469;1253;21975;-78
2022/05/13 08:06:05;;;;;;;;;;;;;;;28.92;23.34;100465.02;110550;1253;21938;-77
2022/05/13 08:08:39;;;;;;;;;;;;;;;28.92;23.81;100467.95;110529;1253;23660;-77
2022/05/13 08:11:14;;;;;;;;;;;;;;;29.06;23.68;100467.45;110612;1253;21949;-77
2022/05/13 08:13:44;;;;;;;;;;;;;;;29.15;23.47;100461.60;110447;1254;22054;-76
2022/05/13 08:16:22;;;;;;;;;;;;;;;29.20;23.43;100459.75;109618;1260;22430;-77
2022/05/13 08:18:52;;;;;;;;;;;;;;;29.21;23.39;100457.77;109722;1261;23041;-76
2022/05/13 08:21:24;;;;;;;;;;;;;;;29.12;23.29;100455.21;109622;1260;23023;-76
2022/05/13 08:24:06;;;;;;;;;;;;;;;29.07;23.39;100451.63;110076;1260;21964;-75
2022/05/13 08:26:36;;;;;;;;;;;;;;;28.90;23.45;100446.88;110005;1260;23580;-74
2022/05/13 08:29:06;;;;;;;;;;;;;;;28.77;23.83;100446.95;109672;1260;22744;-73
2022/05/13 08:31:36;;;;;;;;;;;;;;;28.88;23.86;100444.17;110028;1261;22089;-76
2022/05/13 08:34:05;;;;;;;;;;;;;;;28.96;23.70;100442.19;109684;1260;22070;-75
2022/05/13 08:36:35;;;;;;;;;;;;;;;29.02;23.63;100445.94;110178;1259;21952;-77
2022/05/13 08:39:10;;;;;;;;;;;;;;;29.17;23.41;100447.48;110171;1260;22177;-77
2022/05/13 08:42:22;;;;;;;;;;;;;;;29.30;22.94;100443.68;109857;1259;505557;-75
2022/05/13 08:44:54;;;;;;;;;;;;;;;29.45;22.88;100443.21;109980;1259;21974;-76
2022/05/13 08:47:42;;;;;;;;;;;;;;;29.56;22.50;100444.23;110323;1258;21969;-77
2022/05/13 08:50:34;;;;;;;;;;;;;;;29.57;22.22;100440.47;110159;1260;23568;-76
2022/05/13 08:53:16;;;;;;;;;;;;;;;29.52;22.10;100433.51;110543;1254;23026;-76
2022/05/13 08:56:05;;;;;;;;;;;;;;;29.49;21.78;100436.59;110565;1253;24382;-76
2022/05/13 08:59:07;;;;;;;;;;;;;;;29.48;21.87;100432.79;110572;1256;22386;-75
2022/05/13 09:01:47;;;;;;;;;;;;;;;29.55;21.73;100432.42;110858;1253;23587;-75
2022/05/13 09:04:54;;;;;;;;;;;;;;;29.57;21.52;100425.27;110653;1253;22562;-74
2022/05/13 09:07:31;;;;;;;;;;;;;;;29.43;21.56;100416.52;110098;1260;21962;-76
2022/05/13 09:10:07;;;;;;;;;;;;;;;29.13;22.01;100414.88;109311;1267;21977;-76
2022/05/13 09:12:55;;;;;;;;;;;;;;;29.06;22.08;100412.73;108904;1270;24059;-77
2022/05/13 09:15:50;;;;;;;;;;;;;;;28.94;21.87;100404.95;108957;1270;23019;-76
2022/05/13 09:19:02;;;;;;;;;;;;;;;29.05;22.19;100407.52;108960;1270;23055;-76
2022/05/13 09:21:33;;;;;;;;;;;;;;;29.19;21.80;100407.69;109041;1270;21962;-76
2022/05/13 09:24:05;;;;;;;;;;;;;;;29.17;21.89;100406.02;108610;1276;23764;-75
2022/05/13 09:26:48;;;;;;;;;;;;;;;29.20;21.87;100398.65;108583;1276;22757;-77
2022/05/13 09:29:22;;;;;;;;;;;;;;;29.35;21.94;100399.65;108765;1270;23772;-77
2022/05/13 09:31:59;;;;;;;;;;;;;;;29.54;21.90;100392.44;109245;1267;23063;-77
2022/05/13 09:34:40;;;;;;;;;;;;;;;29.71;21.90;100391.24;109448;1266;22148;-77
2022/05/13 09:37:20;;;;;;;;;;;;;;;29.86;21.59;100387.10;109293;1266;23725;-73
2022/05/13 09:40:15;;;;;;;;;;;;;;;29.86;21.25;100378.27;109204;1267;22139;-78
2022/05/13 09:42:52;;;;;;;;;;;;;;;29.94;21.24;100377.81;109571;1260;23097;-76
2022/05/13 09:45:33;;;;;;;;;;;;;;;30.19;21.03;100376.58;110418;1253;21952;-77
2022/05/13 09:48:14;;;;;;;;;;;;;;;30.07;20.49;100375.48;110370;1253;22146;-75
2022/05/13 09:50:52;;;;;;;;;;;;;;;29.98;21.13;100369.96;110124;1259;21970;-75
2022/05/13 09:53:29;;;;;;;;;;;;;;;30.23;20.87;100368.17;110019;1259;21957;-75
2022/05/13 09:56:05;;;;;;;;;;;;;;;30.27;20.30;100362.21;109895;1259;21943;-76
2022/05/13 09:58:55;;;;;;;;;;;;;;;30.01;20.13;100362.73;110205;1259;21961;-75
2022/05/13 10:01:34;;;;;;;;;;;;;;;29.58;20.34;100359.29;110028;1259;22205;-78
2022/05/13 10:04:11;;;;;;;;;;;;;;;29.31;20.72;100354.53;109983;1259;21950;-78
2022/05/13 10:06:42;;;;;;;;;;;;;;;29.06;20.96;100353.44;110033;1259;22975;-77
2022/05/13 10:15:39;;;;;;;;;;;;;;;28.36;21.43;100338.46;110630;1253;22026;-74
2022/05/13 10:18:18;;;;;;;;;;;;;;;28.11;21.88;100335.64;110437;1253;21940;-77
2022/05/13 10:20:50;;;;;;;;;;;;;;;27.84;21.91;100327.66;110400;1256;21960;-76
2022/05/13 10:23:38;;;;;;;;;;;;;;;27.55;22.28;100315.98;109673;1262;23727;-76
2022/05/13 10:26:14;;;;;;;;;;;;;;;27.31;22.48;100316.58;109560;1263;22358;-76
2022/05/13 10:29:15;;;;;;;;;;;;;;;27.09;22.86;100326.76;108967;1269;21971;-77
2022/05/13 10:31:53;;;;;;;;;;;;;;;26.76;23.22;100325.19;109193;1267;23266;-77
2022/05/13 10:34:48;;;;;;;;;;;;;;;26.52;23.30;100326.02;108886;1270;21976;-75
2022/05/13 10:37:45;;;;;;;;;;;;;;;26.50;23.54;100313.73;108955;1270;22029;-80
2022/05/13 10:40:28;;;;;;;;;;;;;;;26.56;23.63;100304.11;109185;1267;21997;-77
2022/05/13 10:43:15;;;;;;;;;;;;;;;26.54;23.91;100303.91;109118;1268;21980;-75
2022/05/13 10:45:51;;;;;;;;;;;;;;;26.54;23.85;100307.43;109009;1268;22543;-75
2022/05/13 10:48:43;;;;;;;;;;;;;;;26.51;23.78;100305.42;109545;1264;22122;-75
2022/05/13 10:51:52;;;;;;;;;;;;;;;26.47;23.78;100299.57;109636;1264;21962;-76
2022/05/13 10:55:07;;;;;;;;;;;;;;;26.44;23.97;100295.56;110070;1260;23762;-75
2022/05/13 10:58:17;;;;;;;;;;;;;;;26.38;23.81;100295.20;109947;1261;23691;-76
2022/05/13 11:00:54;;;;;;;;;;;;;;;26.21;23.94;100301.13;109640;1259;23080;-75
2022/05/13 11:04:06;;;;;;;;;;;;;;;26.10;24.17;100301.95;109898;1259;21960;-77
2022/05/13 11:07:07;;;;;;;;;;;;;;;26.01;24.08;100298.10;110016;1259;21947;-74
2022/05/13 11:09:57;;;;;;;;;;;;;;;25.91;24.07;100299.63;110274;1259;22040;-75
2022/05/13 11:12:40;;;;;;;;;;;;;;;25.79;24.30;100303.66;110251;1259;22109;-77
2022/05/13 11:15:22;;;;;;;;;;;;;;;25.66;24.51;100295.30;110100;1259;23683;-79
2022/05/13 11:18:42;;;;;;;;;;;;;;;25.58;24.91;100297.20;110266;1260;23081;-76
2022/05/13 11:21:42;;;;;;;;;;;;;;;25.63;25.22;100292.05;109847;1262;23017;-77
2022/05/13 11:28:16;;;;;;;;;;;;;;;25.64;24.94;100286.11;108815;1273;23721;-76
2022/05/13 11:30:50;;;;;;;;;;;;;;;25.64;25.08;100281.89;108723;1273;23070;-77
2022/05/13 11:33:45;;;;;;;;;;;;;;;25.63;24.98;100273.17;108353;1279;22060;-75
2022/05/13 11:36:48;;;;;;;;;;;;;;;25.61;24.97;100267.66;108467;1276;23668;-77
2022/05/13 11:39:56;;;;;;;;;;;;;;;25.57;25.06;100261.55;108827;1268;23061;-77
2022/05/13 11:43:25;;;;;;;;;;;;;;;25.53;25.19;100259.96;108924;1267;21987;-76
2022/05/13 11:46:26;;;;;;;;;;;;;;;25.48;25.29;100260.34;109161;1264;21972;-74
2022/05/13 11:49:10;;;;;;;;;;;;;;;25.35;24.92;100252.65;109388;1265;21984;-77
2022/05/13 11:51:39;;;;;;;;;;;;;;;25.19;25.28;100249.91;109646;1259;21973;-75
2022/05/13 11:54:27;;;;;;;;;;;;;;;25.12;25.42;100252.05;109960;1259;21959;-75
2022/05/13 11:57:15;;;;;;;;;;;;;;;25.03;25.66;100251.23;109674;1259;23698;-77
2022/05/13 11:59:50;;;;;;;;;;;;;;;25.02;25.59;100247.30;110006;1259;21964;-77
2022/05/13 12:02:34;;;;;;;;;;;;;;;24.89;25.51;100236.29;110275;1257;21974;-77
2022/05/13 12:05:10;;;;;;;;;;;;;;;24.71;26.00;100229.46;109850;1262;21953;-76
2022/05/13 12:08:00;;;;;;;;;;;;;;;24.68;26.45;100233.19;109654;1262;22049;-77
2022/05/13 12:10:40;;;;;;;;;;;;;;;24.71;26.21;100234.76;109708;1262;23674;-77
2022/05/13 12:14:04;;;;;;;;;;;;;;;24.72;26.42;100237.84;109496;1262;21982;-73
2022/05/13 12:16:44;;;;;;;;;;;;;;;24.54;26.29;100228.48;108517;1276;22046;-77
2022/05/13 12:19:39;;;;;;;;;;;;;;;24.42;26.59;100221.60;108429;1276;22084;-77
2022/05/13 12:22:26;;;;;;;;;;;;;;;24.45;26.74;100224.12;108768;1273;23598;-75
2022/05/13 12:25:21;;;;;;;;;;;;;;;24.46;26.67;100227.80;108965;1270;23074;-76
2022/05/13 12:28:39;;;;;;;;;;;;;;;24.47;26.95;100224.61;108978;1270;22740;-76
2022/05/13 12:31:34;;;;;;;;;;;;;;;24.57;26.85;100227.09;108511;1276;23106;-77
2022/05/13 12:41:14;;;;;;;;;;;;;;;24.68;26.76;100208.38;108143;1282;21989;-78
2022/05/13 12:44:13;;;;;;;;;;;;;;;24.69;26.81;100203.73;107352;1286;21977;-76
2022/05/13 12:46:48;;;;;;;;;;;;;;;24.67;26.72;100192.94;107099;1289;22029;-76
2022/05/13 12:49:21;;;;;;;;;;;;;;;24.69;26.75;100190.52;107417;1287;22311;-76
2022/05/13 12:52:14;;;;;;;;;;;;;;;24.65;26.76;100187.16;107891;1282;23931;-77
2022/05/13 12:55:18;;;;;;;;;;;;;;;24.55;26.66;100178.96;108432;1276;22246;-77
2022/05/13 12:58:01;;;;;;;;;;;;;;;24.46;26.91;100172.83;108592;1276;21986;-76
2022/05/13 13:00:40;;;;;;;;;;;;;;;24.48;27.36;100169.48;108518;1276;22000;-77
2022/05/13 13:03:18;;;;;;;;;;;;;;;24.44;27.20;100167.73;108900;1270;22165;-76
2022/05/13 13:06:01;;;;;;;;;;;;;;;24.38;27.23;100168.17;108802;1270;22113;-77
2022/05/13 13:08:37;;;;;;;;;;;;;;;24.34;27.13;100168.42;108873;1270;22407;-77
2022/05/13 13:11:38;;;;;;;;;;;;;;;24.28;27.21;100167.54;108535;1270;23051;-78
2022/05/13 13:14:18;;;;;;;;;;;;;;;24.28;27.33;100161.82;108867;1270;22097;-77
2022/05/13 13:17:02;;;;;;;;;;;;;;;24.32;27.42;100162.25;108888;1270;22739;-76
2022/05/13 13:19:33;;;;;;;;;;;;;;;24.29;27.46;100164.52;109834;1263;24769;-77
2022/05/13 13:22:14;;;;;;;;;;;;;;;24.23;27.52;100164.98;109278;1264;24386;-75
2022/05/13 13:24:54;;;;;;;;;;;;;;;24.14;27.48;100164.39;109884;1259;22194;-77
2022/05/13 13:28:05;;;;;;;;;;;;;;;24.06;27.64;100157.80;110260;1257;22747;-77
2022/05/13 13:30:47;;;;;;;;;;;;;;;24.12;27.99;100155.63;110121;1259;21999;-74
2022/05/13 13:33:23;;;;;;;;;;;;;;;24.23;28.11;100157.63;110246;1259;21965;-77
2022/05/13 13:36:16;;;;;;;;;;;;;;;24.33;27.83;100150.86;110453;1253;21949;-77
2022/05/13 13:38:49;;;;;;;;;;;;;;;24.34;27.74;100152.45;110600;1253;24384;-76
2022/05/13 13:41:33;;;;;;;;;;;;;;;24.32;27.78;100150.16;110575;1254;21957;-78
2022/05/13 13:44:07;;;;;;;;;;;;;;;24.28;27.93;100148.31;110589;1253;22458;-77
2022/05/13 13:47:12;;;;;;;;;;;;;;;24.26;27.96;100147.71;109950;1259;21956;-75
2022/05/13 13:49:47;;;;;;;;;;;;;;;24.27;27.98;100143.23;109967;1260;23583;-76
2022/05/13 13:52:33;;;;;;;;;;;;;;;24.27;27.80;100141.02;109755;1262;23826;-76
2022/05/13 13:55:22;;;;;;;;;;;;;;;;;;;;;
2022/05/13 13:58:29;;;;;;;;;;;;;;;24.25;27.87;100137.02;108851;1270;21979;-77
2022/05/13 14:01:22;;;;;;;;;;;;;;;24.30;28.01;100130.34;108847;1270;22735;-76
2022/05/13 14:04:10;;;;;;;;;;;;;;;24.36;27.90;100131.60;108829;1267;22768;-77
2022/05/13 14:06:41;;;;;;;;;;;;;;;24.38;27.96;100137.92;108742;1272;22013;-75
2022/05/13 14:09:28;;;;;;;;;;;;;;;24.37;27.90;100134.42;108543;1276;23814;-76
2022/05/13 14:11:58;;;;;;;;;;;;;;;24.32;27.81;100132.62;108625;1274;23153;-76
2022/05/13 14:14:52;;;;;;;;;;;;;;;24.29;28.00;100132.17;108825;1270;21978;-73
2022/05/13 14:17:25;;;;;;;;;;;;;;;24.18;28.05;100131.70;109183;1265;23251;-76
2022/05/13 14:20:01;;;;;;;;;;;;;;;24.09;28.21;100123.23;109262;1263;21969;-74
2022/05/13 14:22:30;;;;;;;;;;;;;;;24.03;28.44;100119.63;109913;1261;22742;-74
2022/05/13 14:25:07;;;;;;;;;;;;;;;23.97;28.57;100120.05;109765;1259;21970;-74
2022/05/13 14:27:37;;;;;;;;;;;;;;;23.90;28.59;100120.92;110195;1253;24257;-75